sensor_id;sensor_type;location;lat;lon;timestamp;temperature;humidity
12309;DHT22;6217;48.150;17.142;2024-01-15T00:03:05;1.50;80.40
12309;DHT22;6217;48.150;17.142;2024-01-15T00:07:11;1.50;80.40
12309;DHT22;6217;48.150;17.142;2024-01-15T00:11:17;1.50;80.40
12309;DHT22;6217;48.150;17.142;2024-01-15T00:15:23;1.50;80.30
12309;DHT22;6217;48.150;17.142;2024-01-15T00:19:29;1.50;80.30
12309;DHT22;6217;48.150;17.142;2024-01-15T00:23:42;1.50;80.30
12309;DHT22;6217;48.150;17.142;2024-01-15T00:27:50;1.50;80.40
12309;DHT22;6217;48.150;17.142;2024-01-15T00:31:56;1.40;80.30
12309;DHT22;6217;48.150;17.142;2024-01-15T00:36:02;1.20;80.90
12309;DHT22;6217;48.150;17.142;2024-01-15T00:40:09;1.40;81.10
12309;DHT22;6217;48.150;17.142;2024-01-15T00:44:15;1.50;80.90
12309;DHT22;6217;48.150;17.142;2024-01-15T00:48:21;1.50;80.60
12309;DHT22;6217;48.150;17.142;2024-01-15T00:52:27;1.40;80.70
12309;DHT22;6217;48.150;17.142;2024-01-15T00:56:33;1.40;81.00
12309;DHT22;6217;48.150;17.142;2024-01-15T01:00:39;1.40;81.10
12309;DHT22;6217;48.150;17.142;2024-01-15T01:04:44;1.40;80.90
12309;DHT22;6217;48.150;17.142;2024-01-15T01:08:50;1.30;80.70
12309;DHT22;6217;48.150;17.142;2024-01-15T01:12:56;1.10;81.00
12309;DHT22;6217;48.150;17.142;2024-01-15T01:17:02;1.10;81.40
12309;DHT22;6217;48.150;17.142;2024-01-15T01:21:08;1.20;81.30
12309;DHT22;6217;48.150;17.142;2024-01-15T01:25:14;1.30;81.60
12309;DHT22;6217;48.150;17.142;2024-01-15T01:29:20;1.50;81.30
12309;DHT22;6217;48.150;17.142;2024-01-15T01:33:26;1.50;81.10
12309;DHT22;6217;48.150;17.142;2024-01-15T01:37:32;1.70;81.00
12309;DHT22;6217;48.150;17.142;2024-01-15T01:41:39;1.80;80.80
12309;DHT22;6217;48.150;17.142;2024-01-15T01:45:45;1.80;80.80
12309;DHT22;6217;48.150;17.142;2024-01-15T01:49:52;1.80;80.80
12309;DHT22;6217;48.150;17.142;2024-01-15T01:53:58;1.80;80.70
12309;DHT22;6217;48.150;17.142;2024-01-15T01:58:04;1.70;81.20
12309;DHT22;6217;48.150;17.142;2024-01-15T02:02:11;1.80;81.10
12309;DHT22;6217;48.150;17.142;2024-01-15T02:06:18;1.70;81.00
12309;DHT22;6217;48.150;17.142;2024-01-15T02:10:24;1.60;81.20
12309;DHT22;6217;48.150;17.142;2024-01-15T02:14:30;1.50;81.50
12309;DHT22;6217;48.150;17.142;2024-01-15T02:18:43;1.50;81.70
12309;DHT22;6217;48.150;17.142;2024-01-15T02:22:49;1.50;81.70
12309;DHT22;6217;48.150;17.142;2024-01-15T02:26:55;1.50;82.00
12309;DHT22;6217;48.150;17.142;2024-01-15T02:31:01;1.60;82.00
12309;DHT22;6217;48.150;17.142;2024-01-15T02:35:07;1.60;81.70
12309;DHT22;6217;48.150;17.142;2024-01-15T02:39:13;1.50;81.80
12309;DHT22;6217;48.150;17.142;2024-01-15T02:43:19;1.60;81.80
12309;DHT22;6217;48.150;17.142;2024-01-15T02:47:25;1.60;81.60
12309;DHT22;6217;48.150;17.142;2024-01-15T02:51:31;1.60;81.60
12309;DHT22;6217;48.150;17.142;2024-01-15T02:55:37;1.60;81.50
12309;DHT22;6217;48.150;17.142;2024-01-15T02:59:42;1.50;81.50
12309;DHT22;6217;48.150;17.142;2024-01-15T03:03:48;1.40;81.70
12309;DHT22;6217;48.150;17.142;2024-01-15T03:07:54;1.30;81.80
12309;DHT22;6217;48.150;17.142;2024-01-15T03:12:00;1.40;82.10
12309;DHT22;6217;48.150;17.142;2024-01-15T03:16:06;1.40;82.70
12309;DHT22;6217;48.150;17.142;2024-01-15T03:20:12;1.50;82.20
12309;DHT22;6217;48.150;17.142;2024-01-15T03:24:18;1.60;81.90
12309;DHT22;6217;48.150;17.142;2024-01-15T03:28:24;1.70;81.60
12309;DHT22;6217;48.150;17.142;2024-01-15T03:32:30;1.60;81.50
12309;DHT22;6217;48.150;17.142;2024-01-15T03:36:36;1.50;81.90
12309;DHT22;6217;48.150;17.142;2024-01-15T03:40:42;1.50;81.80
12309;DHT22;6217;48.150;17.142;2024-01-15T03:44:48;1.30;81.80
12309;DHT22;6217;48.150;17.142;2024-01-15T03:48:54;1.20;82.30
12309;DHT22;6217;48.150;17.142;2024-01-15T03:53:00;1.20;82.50
12309;DHT22;6217;48.150;17.142;2024-01-15T03:57:06;1.10;82.90
12309;DHT22;6217;48.150;17.142;2024-01-15T04:01:12;1.00;82.90
12309;DHT22;6217;48.150;17.142;2024-01-15T04:05:18;1.10;82.80
12309;DHT22;6217;48.150;17.142;2024-01-15T04:09:24;1.10;82.70
12309;DHT22;6217;48.150;17.142;2024-01-15T04:13:32;1.00;82.50
12309;DHT22;6217;48.150;17.142;2024-01-15T04:17:39;1.20;82.70
12309;DHT22;6217;48.150;17.142;2024-01-15T04:21:45;1.20;82.50
12309;DHT22;6217;48.150;17.142;2024-01-15T04:25:50;1.40;82.30
12309;DHT22;6217;48.150;17.142;2024-01-15T04:29:56;1.50;82.00
12309;DHT22;6217;48.150;17.142;2024-01-15T04:34:02;1.60;81.80
12309;DHT22;6217;48.150;17.142;2024-01-15T04:38:08;1.80;81.50
12309;DHT22;6217;48.150;17.142;2024-01-15T04:42:14;1.90;81.30
12309;DHT22;6217;48.150;17.142;2024-01-15T04:46:20;2.00;81.00
12309;DHT22;6217;48.150;17.142;2024-01-15T04:50:26;2.20;80.70
12309;DHT22;6217;48.150;17.142;2024-01-15T04:54:32;2.30;80.40
12309;DHT22;6217;48.150;17.142;2024-01-15T04:58:38;2.50;79.90
12309;DHT22;6217;48.150;17.142;2024-01-15T05:02:44;2.60;79.40
12309;DHT22;6217;48.150;17.142;2024-01-15T05:06:50;2.70;79.00
12309;DHT22;6217;48.150;17.142;2024-01-15T05:10:56;2.80;78.90
12309;DHT22;6217;48.150;17.142;2024-01-15T05:15:02;2.80;78.70
12309;DHT22;6217;48.150;17.142;2024-01-15T05:19:09;2.80;78.50
12309;DHT22;6217;48.150;17.142;2024-01-15T05:23:15;2.80;78.50
12309;DHT22;6217;48.150;17.142;2024-01-15T05:27:21;2.80;78.30
12309;DHT22;6217;48.150;17.142;2024-01-15T05:31:27;2.90;78.20
12309;DHT22;6217;48.150;17.142;2024-01-15T05:35:34;2.90;78.00
12309;DHT22;6217;48.150;17.142;2024-01-15T05:39:40;2.90;78.00
12309;DHT22;6217;48.150;17.142;2024-01-15T05:43:46;2.80;78.00
12309;DHT22;6217;48.150;17.142;2024-01-15T05:47:51;2.80;77.90
12309;DHT22;6217;48.150;17.142;2024-01-15T05:51:57;2.80;78.00
12309;DHT22;6217;48.150;17.142;2024-01-15T05:56:03;2.70;78.00
12309;DHT22;6217;48.150;17.142;2024-01-15T06:00:10;2.70;78.10
12309;DHT22;6217;48.150;17.142;2024-01-15T06:04:16;2.60;78.00
12309;DHT22;6217;48.150;17.142;2024-01-15T06:08:22;2.60;78.10
12309;DHT22;6217;48.150;17.142;2024-01-15T06:12:28;2.50;77.90
12309;DHT22;6217;48.150;17.142;2024-01-15T06:16:34;2.40;77.80
12309;DHT22;6217;48.150;17.142;2024-01-15T06:20:40;2.40;77.90
12309;DHT22;6217;48.150;17.142;2024-01-15T06:24:46;2.40;77.60
12309;DHT22;6217;48.150;17.142;2024-01-15T06:28:52;2.40;77.40
12309;DHT22;6217;48.150;17.142;2024-01-15T06:32:58;2.40;77.20
12309;DHT22;6217;48.150;17.142;2024-01-15T06:37:04;2.40;77.30
12309;DHT22;6217;48.150;17.142;2024-01-15T06:41:10;2.40;77.20
12309;DHT22;6217;48.150;17.142;2024-01-15T06:45:16;2.40;77.10
12309;DHT22;6217;48.150;17.142;2024-01-15T06:49:22;2.40;77.00
12309;DHT22;6217;48.150;17.142;2024-01-15T06:53:27;2.50;76.90
12309;DHT22;6217;48.150;17.142;2024-01-15T06:57:33;2.60;76.90
12309;DHT22;6217;48.150;17.142;2024-01-15T07:01:39;2.60;76.60
12309;DHT22;6217;48.150;17.142;2024-01-15T07:05:46;2.70;76.60
12309;DHT22;6217;48.150;17.142;2024-01-15T07:09:51;2.80;76.50
12309;DHT22;6217;48.150;17.142;2024-01-15T07:13:57;2.90;76.40
12309;DHT22;6217;48.150;17.142;2024-01-15T07:18:03;3.00;76.20
12309;DHT22;6217;48.150;17.142;2024-01-15T07:22:10;3.20;76.00
12309;DHT22;6217;48.150;17.142;2024-01-15T07:26:15;3.40;75.90
12309;DHT22;6217;48.150;17.142;2024-01-15T07:30:21;3.60;76.00
12309;DHT22;6217;48.150;17.142;2024-01-15T07:34:27;4.00;75.70
12309;DHT22;6217;48.150;17.142;2024-01-15T07:38:33;4.20;74.90
12309;DHT22;6217;48.150;17.142;2024-01-15T07:42:39;5.20;74.00
12309;DHT22;6217;48.150;17.142;2024-01-15T07:46:48;5.10;72.20
12309;DHT22;6217;48.150;17.142;2024-01-15T07:50:54;4.70;72.80
12309;DHT22;6217;48.150;17.142;2024-01-15T07:55:00;4.40;73.30
12309;DHT22;6217;48.150;17.142;2024-01-15T07:59:06;4.20;73.70
12309;DHT22;6217;48.150;17.142;2024-01-15T08:03:12;4.00;73.80
12309;DHT22;6217;48.150;17.142;2024-01-15T08:07:18;3.80;73.80
12309;DHT22;6217;48.150;17.142;2024-01-15T08:11:24;3.80;74.40
12309;DHT22;6217;48.150;17.142;2024-01-15T08:15:30;3.80;74.20
12309;DHT22;6217;48.150;17.142;2024-01-15T08:19:36;3.90;74.30
12309;DHT22;6217;48.150;17.142;2024-01-15T08:23:42;4.00;74.20
12309;DHT22;6217;48.150;17.142;2024-01-15T08:27:48;4.10;73.50
12309;DHT22;6217;48.150;17.142;2024-01-15T08:31:53;4.00;73.20
12309;DHT22;6217;48.150;17.142;2024-01-15T08:35:59;4.00;73.50
12309;DHT22;6217;48.150;17.142;2024-01-15T08:40:06;4.00;73.20
12309;DHT22;6217;48.150;17.142;2024-01-15T08:44:12;4.00;72.80
12309;DHT22;6217;48.150;17.142;2024-01-15T08:48:18;4.00;73.00
12309;DHT22;6217;48.150;17.142;2024-01-15T08:52:24;4.10;72.80
12309;DHT22;6217;48.150;17.142;2024-01-15T08:56:30;4.20;72.60
12309;DHT22;6217;48.150;17.142;2024-01-15T09:00:36;4.30;73.50
12309;DHT22;6217;48.150;17.142;2024-01-15T09:04:42;4.30;72.70
12309;DHT22;6217;48.150;17.142;2024-01-15T09:08:49;4.40;72.30
12309;DHT22;6217;48.150;17.142;2024-01-15T09:12:55;4.40;72.30
12309;DHT22;6217;48.150;17.142;2024-01-15T09:17:00;4.70;72.30
12309;DHT22;6217;48.150;17.142;2024-01-15T09:21:07;4.80;71.80
12309;DHT22;6217;48.150;17.142;2024-01-15T09:25:13;4.80;71.60
12309;DHT22;6217;48.150;17.142;2024-01-15T09:29:22;5.10;71.60
12309;DHT22;6217;48.150;17.142;2024-01-15T09:33:29;5.40;71.50
12309;DHT22;6217;48.150;17.142;2024-01-15T09:37:35;5.50;70.90
12309;DHT22;6217;48.150;17.142;2024-01-15T09:41:41;5.50;70.30
12309;DHT22;6217;48.150;17.142;2024-01-15T09:45:49;5.50;70.70
12309;DHT22;6217;48.150;17.142;2024-01-15T09:49:55;5.30;70.30
12309;DHT22;6217;48.150;17.142;2024-01-15T09:54:04;5.20;70.30
12309;DHT22;6217;48.150;17.142;2024-01-15T09:58:10;5.20;70.40
12309;DHT22;6217;48.150;17.142;2024-01-15T10:02:16;5.10;70.40
12309;DHT22;6217;48.150;17.142;2024-01-15T10:06:26;5.20;70.50
12309;DHT22;6217;48.150;17.142;2024-01-15T10:10:36;5.30;70.60
12309;DHT22;6217;48.150;17.142;2024-01-15T10:14:43;5.30;70.80
12309;DHT22;6217;48.150;17.142;2024-01-15T10:18:49;5.50;70.40
12309;DHT22;6217;48.150;17.142;2024-01-15T10:22:55;5.60;70.30
12309;DHT22;6217;48.150;17.142;2024-01-15T10:27:05;5.60;70.00
12309;DHT22;6217;48.150;17.142;2024-01-15T10:31:12;5.50;69.70
12309;DHT22;6217;48.150;17.142;2024-01-15T10:35:21;5.60;69.70
12309;DHT22;6217;48.150;17.142;2024-01-15T10:39:27;5.60;69.30
12309;DHT22;6217;48.150;17.142;2024-01-15T10:43:33;5.70;69.00
12309;DHT22;6217;48.150;17.142;2024-01-15T10:47:40;5.80;68.30
12309;DHT22;6217;48.150;17.142;2024-01-15T10:51:47;6.00;68.40
12309;DHT22;6217;48.150;17.142;2024-01-15T10:55:54;6.10;68.10
12309;DHT22;6217;48.150;17.142;2024-01-15T11:00:02;6.10;68.10
12309;DHT22;6217;48.150;17.142;2024-01-15T11:04:11;6.20;68.20
12309;DHT22;6217;48.150;17.142;2024-01-15T11:08:17;6.30;68.00
12309;DHT22;6217;48.150;17.142;2024-01-15T11:12:24;6.40;68.00
12309;DHT22;6217;48.150;17.142;2024-01-15T11:16:53;6.30;68.10
12309;DHT22;6217;48.150;17.142;2024-01-15T11:25:22;6.30;67.90
12309;DHT22;6217;48.150;17.142;2024-01-15T11:33:35;6.30;68.20
12309;DHT22;6217;48.150;17.142;2024-01-15T11:42:01;6.50;67.90
12309;DHT22;6217;48.150;17.142;2024-01-15T11:46:12;6.60;67.30
12309;DHT22;6217;48.150;17.142;2024-01-15T11:50:18;6.60;66.90
12309;DHT22;6217;48.150;17.142;2024-01-15T11:54:25;6.70;66.70
12309;DHT22;6217;48.150;17.142;2024-01-15T11:58:31;6.60;66.40
12309;DHT22;6217;48.150;17.142;2024-01-15T12:02:39;6.70;66.70
12309;DHT22;6217;48.150;17.142;2024-01-15T12:06:47;6.80;66.60
12309;DHT22;6217;48.150;17.142;2024-01-15T12:10:53;6.80;66.50
12309;DHT22;6217;48.150;17.142;2024-01-15T12:14:59;6.70;66.40
12309;DHT22;6217;48.150;17.142;2024-01-15T12:19:06;6.80;66.60
12309;DHT22;6217;48.150;17.142;2024-01-15T12:23:13;6.90;66.40
12309;DHT22;6217;48.150;17.142;2024-01-15T12:27:20;7.00;66.10
12309;DHT22;6217;48.150;17.142;2024-01-15T12:31:26;7.20;65.70
12309;DHT22;6217;48.150;17.142;2024-01-15T12:35:34;7.00;65.10
12309;DHT22;6217;48.150;17.142;2024-01-15T12:39:43;6.80;64.50
12309;DHT22;6217;48.150;17.142;2024-01-15T12:43:49;6.60;64.50
12309;DHT22;6217;48.150;17.142;2024-01-15T12:47:55;6.50;64.80
12309;DHT22;6217;48.150;17.142;2024-01-15T12:52:01;6.50;65.10
12309;DHT22;6217;48.150;17.142;2024-01-15T12:56:07;6.40;64.90
12309;DHT22;6217;48.150;17.142;2024-01-15T13:00:14;6.30;65.10
12309;DHT22;6217;48.150;17.142;2024-01-15T13:04:23;6.30;65.30
12309;DHT22;6217;48.150;17.142;2024-01-15T13:08:30;6.20;65.40
12309;DHT22;6217;48.150;17.142;2024-01-15T13:12:37;6.20;65.40
12309;DHT22;6217;48.150;17.142;2024-01-15T13:16:44;6.30;65.40
12309;DHT22;6217;48.150;17.142;2024-01-15T13:20:50;6.10;65.00
12309;DHT22;6217;48.150;17.142;2024-01-15T13:24:56;6.10;65.20
12309;DHT22;6217;48.150;17.142;2024-01-15T13:29:05;6.00;65.50
12309;DHT22;6217;48.150;17.142;2024-01-15T13:33:11;6.00;65.80
12309;DHT22;6217;48.150;17.142;2024-01-15T13:37:17;5.90;65.50
12309;DHT22;6217;48.150;17.142;2024-01-15T13:41:23;5.70;65.40
12309;DHT22;6217;48.150;17.142;2024-01-15T13:45:32;5.70;65.60
12309;DHT22;6217;48.150;17.142;2024-01-15T13:49:39;5.60;65.60
12309;DHT22;6217;48.150;17.142;2024-01-15T13:53:45;5.50;65.90
12309;DHT22;6217;48.150;17.142;2024-01-15T13:57:51;5.40;65.90
12309;DHT22;6217;48.150;17.142;2024-01-15T14:01:57;5.30;66.20
12309;DHT22;6217;48.150;17.142;2024-01-15T14:06:03;5.30;66.30
12309;DHT22;6217;48.150;17.142;2024-01-15T14:10:14;5.20;66.70
12309;DHT22;6217;48.150;17.142;2024-01-15T14:14:20;5.20;66.80
12309;DHT22;6217;48.150;17.142;2024-01-15T14:18:27;5.20;66.80
12309;DHT22;6217;48.150;17.142;2024-01-15T14:22:32;5.10;66.80
12309;DHT22;6217;48.150;17.142;2024-01-15T14:26:38;5.10;67.00
12309;DHT22;6217;48.150;17.142;2024-01-15T14:30:44;5.00;66.90
12309;DHT22;6217;48.150;17.142;2024-01-15T14:34:50;5.00;67.00
12309;DHT22;6217;48.150;17.142;2024-01-15T14:38:56;4.90;67.10
12309;DHT22;6217;48.150;17.142;2024-01-15T14:43:02;4.90;67.40
12309;DHT22;6217;48.150;17.142;2024-01-15T14:47:08;4.80;67.60
12309;DHT22;6217;48.150;17.142;2024-01-15T14:51:14;4.70;67.70
12309;DHT22;6217;48.150;17.142;2024-01-15T14:55:20;4.60;67.80
12309;DHT22;6217;48.150;17.142;2024-01-15T14:59:28;4.60;68.00
12309;DHT22;6217;48.150;17.142;2024-01-15T15:03:35;4.60;68.20
12309;DHT22;6217;48.150;17.142;2024-01-15T15:07:41;4.50;68.10
12309;DHT22;6217;48.150;17.142;2024-01-15T15:11:47;4.50;68.30
12309;DHT22;6217;48.150;17.142;2024-01-15T15:15:53;4.40;68.40
12309;DHT22;6217;48.150;17.142;2024-01-15T15:20:00;4.40;68.50
12309;DHT22;6217;48.150;17.142;2024-01-15T15:24:08;4.30;68.70
12309;DHT22;6217;48.150;17.142;2024-01-15T15:28:14;4.20;68.80
12309;DHT22;6217;48.150;17.142;2024-01-15T15:32:21;4.20;69.00
12309;DHT22;6217;48.150;17.142;2024-01-15T15:36:28;4.10;69.20
12309;DHT22;6217;48.150;17.142;2024-01-15T15:40:34;4.10;69.30
12309;DHT22;6217;48.150;17.142;2024-01-15T15:44:40;4.20;69.40
12309;DHT22;6217;48.150;17.142;2024-01-15T15:48:51;4.20;69.30
12309;DHT22;6217;48.150;17.142;2024-01-15T15:52:57;4.20;69.30
12309;DHT22;6217;48.150;17.142;2024-01-15T15:57:03;4.20;69.30
12309;DHT22;6217;48.150;17.142;2024-01-15T16:01:09;4.30;69.40
12309;DHT22;6217;48.150;17.142;2024-01-15T16:05:17;4.30;69.40
12309;DHT22;6217;48.150;17.142;2024-01-15T16:09:23;4.30;69.40
12309;DHT22;6217;48.150;17.142;2024-01-15T16:13:29;4.20;69.50
12309;DHT22;6217;48.150;17.142;2024-01-15T16:17:35;4.20;69.50
12309;DHT22;6217;48.150;17.142;2024-01-15T16:21:41;4.20;69.50
12309;DHT22;6217;48.150;17.142;2024-01-15T16:25:48;4.20;69.50
12309;DHT22;6217;48.150;17.142;2024-01-15T16:29:54;4.20;69.50
12309;DHT22;6217;48.150;17.142;2024-01-15T16:34:00;4.20;69.50
12309;DHT22;6217;48.150;17.142;2024-01-15T16:38:06;4.30;69.30
12309;DHT22;6217;48.150;17.142;2024-01-15T16:42:12;4.30;69.40
12309;DHT22;6217;48.150;17.142;2024-01-15T16:46:17;4.30;69.30
12309;DHT22;6217;48.150;17.142;2024-01-15T16:50:23;4.30;69.30
12309;DHT22;6217;48.150;17.142;2024-01-15T16:54:31;4.30;69.30
12309;DHT22;6217;48.150;17.142;2024-01-15T16:58:38;4.30;70.00
12309;DHT22;6217;48.150;17.142;2024-01-15T17:02:44;4.30;69.40
12309;DHT22;6217;48.150;17.142;2024-01-15T17:06:50;4.20;69.30
12309;DHT22;6217;48.150;17.142;2024-01-15T17:10:56;4.10;69.50
12309;DHT22;6217;48.150;17.142;2024-01-15T17:15:02;4.10;69.60
12309;DHT22;6217;48.150;17.142;2024-01-15T17:19:08;4.10;69.60
12309;DHT22;6217;48.150;17.142;2024-01-15T17:23:15;4.00;69.70
12309;DHT22;6217;48.150;17.142;2024-01-15T17:27:21;4.00;69.80
12309;DHT22;6217;48.150;17.142;2024-01-15T17:31:27;3.90;69.80
12309;DHT22;6217;48.150;17.142;2024-01-15T17:35:34;3.80;69.80
12309;DHT22;6217;48.150;17.142;2024-01-15T17:39:40;3.80;70.00
12309;DHT22;6217;48.150;17.142;2024-01-15T17:43:47;3.80;70.00
12309;DHT22;6217;48.150;17.142;2024-01-15T17:47:53;3.80;70.00
12309;DHT22;6217;48.150;17.142;2024-01-15T17:51:59;3.90;70.00
12309;DHT22;6217;48.150;17.142;2024-01-15T17:56:05;3.90;69.90
12309;DHT22;6217;48.150;17.142;2024-01-15T18:00:12;4.00;69.80
12309;DHT22;6217;48.150;17.142;2024-01-15T18:04:20;4.00;69.60
12309;DHT22;6217;48.150;17.142;2024-01-15T18:08:26;4.10;69.50
12309;DHT22;6217;48.150;17.142;2024-01-15T18:12:32;4.10;69.40
12309;DHT22;6217;48.150;17.142;2024-01-15T18:16:38;4.10;69.50
12309;DHT22;6217;48.150;17.142;2024-01-15T18:20:44;4.10;69.50
12309;DHT22;6217;48.150;17.142;2024-01-15T18:24:50;4.00;69.40
12309;DHT22;6217;48.150;17.142;2024-01-15T18:28:56;3.90;69.60
12309;DHT22;6217;48.150;17.142;2024-01-15T18:33:02;3.80;69.70
12309;DHT22;6217;48.150;17.142;2024-01-15T18:37:08;3.80;69.80
12309;DHT22;6217;48.150;17.142;2024-01-15T18:41:21;3.70;70.00
12309;DHT22;6217;48.150;17.142;2024-01-15T18:45:29;3.70;70.10
12309;DHT22;6217;48.150;17.142;2024-01-15T18:49:35;3.70;70.20
12309;DHT22;6217;48.150;17.142;2024-01-15T18:53:42;3.70;70.30
12309;DHT22;6217;48.150;17.142;2024-01-15T18:57:48;3.70;70.40
12309;DHT22;6217;48.150;17.142;2024-01-15T19:01:54;3.60;70.50
12309;DHT22;6217;48.150;17.142;2024-01-15T19:06:00;3.60;70.60
12309;DHT22;6217;48.150;17.142;2024-01-15T19:10:06;3.60;70.80
12309;DHT22;6217;48.150;17.142;2024-01-15T19:14:13;3.60;70.90
12309;DHT22;6217;48.150;17.142;2024-01-15T19:18:19;3.60;70.90
12309;DHT22;6217;48.150;17.142;2024-01-15T19:22:25;3.60;71.10
12309;DHT22;6217;48.150;17.142;2024-01-15T19:26:31;3.60;71.20
12309;DHT22;6217;48.150;17.142;2024-01-15T19:30:37;3.60;72.00
12309;DHT22;6217;48.150;17.142;2024-01-15T19:34:43;3.50;71.40
12309;DHT22;6217;48.150;17.142;2024-01-15T19:38:50;3.60;71.50
12309;DHT22;6217;48.150;17.142;2024-01-15T19:42:57;3.60;71.60
12309;DHT22;6217;48.150;17.142;2024-01-15T19:47:03;3.50;71.60
12309;DHT22;6217;48.150;17.142;2024-01-15T19:51:09;3.50;71.70
12309;DHT22;6217;48.150;17.142;2024-01-15T19:55:15;3.50;71.80
12309;DHT22;6217;48.150;17.142;2024-01-15T19:59:21;3.50;71.80
12309;DHT22;6217;48.150;17.142;2024-01-15T20:03:29;3.50;72.00
12309;DHT22;6217;48.150;17.142;2024-01-15T20:07:36;3.50;72.20
12309;DHT22;6217;48.150;17.142;2024-01-15T20:11:42;3.40;72.40
12309;DHT22;6217;48.150;17.142;2024-01-15T20:15:50;3.40;72.70
12309;DHT22;6217;48.150;17.142;2024-01-15T20:19:56;3.40;73.00
12309;DHT22;6217;48.150;17.142;2024-01-15T20:24:02;3.40;73.50
12309;DHT22;6217;48.150;17.142;2024-01-15T20:28:12;3.40;73.60
12309;DHT22;6217;48.150;17.142;2024-01-15T20:32:21;3.40;73.80
12309;DHT22;6217;48.150;17.142;2024-01-15T20:36:30;3.30;74.10
12309;DHT22;6217;48.150;17.142;2024-01-15T20:40:37;3.30;74.60
12309;DHT22;6217;48.150;17.142;2024-01-15T20:44:46;3.30;74.90
12309;DHT22;6217;48.150;17.142;2024-01-15T20:48:52;3.30;75.00
12309;DHT22;6217;48.150;17.142;2024-01-15T20:52:57;3.30;75.20
12309;DHT22;6217;48.150;17.142;2024-01-15T20:57:04;3.30;75.40
12309;DHT22;6217;48.150;17.142;2024-01-15T21:01:10;3.40;75.40
12309;DHT22;6217;48.150;17.142;2024-01-15T21:05:17;3.50;75.40
12309;DHT22;6217;48.150;17.142;2024-01-15T21:09:23;3.60;75.30
12309;DHT22;6217;48.150;17.142;2024-01-15T21:13:29;3.70;75.20
12309;DHT22;6217;48.150;17.142;2024-01-15T21:17:36;3.70;75.30
12309;DHT22;6217;48.150;17.142;2024-01-15T21:21:43;3.70;75.30
12309;DHT22;6217;48.150;17.142;2024-01-15T21:25:50;3.70;75.40
12309;DHT22;6217;48.150;17.142;2024-01-15T21:29:56;3.60;75.80
12309;DHT22;6217;48.150;17.142;2024-01-15T21:34:01;3.60;75.90
12309;DHT22;6217;48.150;17.142;2024-01-15T21:38:07;3.50;76.60
12309;DHT22;6217;48.150;17.142;2024-01-15T21:42:13;3.50;76.20
12309;DHT22;6217;48.150;17.142;2024-01-15T21:46:19;3.50;76.30
12309;DHT22;6217;48.150;17.142;2024-01-15T21:50:25;3.60;76.40
12309;DHT22;6217;48.150;17.142;2024-01-15T21:54:31;3.60;76.40
12309;DHT22;6217;48.150;17.142;2024-01-15T21:58:38;3.60;76.40
12309;DHT22;6217;48.150;17.142;2024-01-15T22:02:44;3.60;76.40
12309;DHT22;6217;48.150;17.142;2024-01-15T22:06:50;3.60;76.30
12309;DHT22;6217;48.150;17.142;2024-01-15T22:10:56;3.70;76.40
12309;DHT22;6217;48.150;17.142;2024-01-15T22:15:02;3.70;76.30
12309;DHT22;6217;48.150;17.142;2024-01-15T22:19:09;3.70;76.20
12309;DHT22;6217;48.150;17.142;2024-01-15T22:23:15;3.60;76.10
12309;DHT22;6217;48.150;17.142;2024-01-15T22:27:20;3.70;76.10
12309;DHT22;6217;48.150;17.142;2024-01-15T22:31:27;3.70;76.00
12309;DHT22;6217;48.150;17.142;2024-01-15T22:35:32;3.70;76.00
12309;DHT22;6217;48.150;17.142;2024-01-15T22:39:39;3.70;76.00
12309;DHT22;6217;48.150;17.142;2024-01-15T22:43:45;3.70;75.90
12309;DHT22;6217;48.150;17.142;2024-01-15T22:47:51;3.60;75.90
12309;DHT22;6217;48.150;17.142;2024-01-15T22:51:57;3.60;75.90
12309;DHT22;6217;48.150;17.142;2024-01-15T22:56:03;3.60;75.70
12309;DHT22;6217;48.150;17.142;2024-01-15T23:00:09;3.60;75.50
12309;DHT22;6217;48.150;17.142;2024-01-15T23:04:52;3.60;75.40
12309;DHT22;6217;48.150;17.142;2024-01-15T23:08:58;3.60;75.40
12309;DHT22;6217;48.150;17.142;2024-01-15T23:13:05;3.60;75.40
12309;DHT22;6217;48.150;17.142;2024-01-15T23:17:11;3.60;75.30
12309;DHT22;6217;48.150;17.142;2024-01-15T23:21:17;3.50;75.30
12309;DHT22;6217;48.150;17.142;2024-01-15T23:25:23;3.50;75.30
12309;DHT22;6217;48.150;17.142;2024-01-15T23:29:35;3.50;75.30
12309;DHT22;6217;48.150;17.142;2024-01-15T23:33:50;3.50;75.30
12309;DHT22;6217;48.150;17.142;2024-01-15T23:37:57;3.50;75.30
12309;DHT22;6217;48.150;17.142;2024-01-15T23:42:03;3.50;75.40
12309;DHT22;6217;48.150;17.142;2024-01-15T23:46:09;3.50;75.40
12309;DHT22;6217;48.150;17.142;2024-01-15T23:50:18;3.50;75.40
12309;DHT22;6217;48.150;17.142;2024-01-15T23:54:25;3.50;75.30
12309;DHT22;6217;48.150;17.142;2024-01-15T23:58:31;3.50;75.30
